sensor_id;sensor_type;location;lat;lon;timestamp;temperature;humidity
52965;DHT22;42923;53.220;6.528;2022-09-09T00:00:12;14.10;99.90
52965;DHT22;42923;53.220;6.528;2022-09-09T00:02:39;14.10;99.90
52965;DHT22;42923;53.220;6.528;2022-09-09T00:05:29;14.00;99.90
52965;DHT22;42923;53.220;6.528;2022-09-09T00:07:59;14.00;99.90
52965;DHT22;42923;53.220;6.528;2022-09-09T00:10:30;14.00;99.90
52965;DHT22;42923;53.220;6.528;2022-09-09T00:13:05;13.90;99.90
52965;DHT22;42923;53.220;6.528;2022-09-09T00:18:27;13.80;99.90
52965;DHT22;42923;53.220;6.528;2022-09-09T00:21:05;13.80;99.90
52965;DHT22;42923;53.220;6.528;2022-09-09T00:23:38;13.80;99.90
52965;DHT22;42923;53.220;6.528;2022-09-09T00:28:46;13.70;99.90
52965;DHT22;42923;53.220;6.528;2022-09-09T00:31:20;13.70;99.90
52965;DHT22;42923;53.220;6.528;2022-09-09T00:33:48;13.60;99.90
52965;DHT22;42923;53.220;6.528;2022-09-09T00:36:18;13.60;99.90
52965;DHT22;42923;53.220;6.528;2022-09-09T00:38:51;13.80;99.90
52965;DHT22;42923;53.220;6.528;2022-09-09T00:55:00;13.40;99.90
52965;DHT22;42923;53.220;6.528;2022-09-09T00:57:32;13.40;99.90
52965;DHT22;42923;53.220;6.528;2022-09-09T01:02:41;13.30;99.90
52965;DHT22;42923;53.220;6.528;2022-09-09T01:05:27;13.30;99.90
52965;DHT22;42923;53.220;6.528;2022-09-09T01:07:58;13.30;99.90
52965;DHT22;42923;53.220;6.528;2022-09-09T01:10:48;13.30;99.90
52965;DHT22;42923;53.220;6.528;2022-09-09T01:13:28;13.20;99.90
52965;DHT22;42923;53.220;6.528;2022-09-09T01:16:04;13.20;99.90
52965;DHT22;42923;53.220;6.528;2022-09-09T01:18:54;13.20;99.90
52965;DHT22;42923;53.220;6.528;2022-09-09T01:24:31;13.10;99.90
52965;DHT22;42923;53.220;6.528;2022-09-09T01:27:13;13.10;99.90
52965;DHT22;42923;53.220;6.528;2022-09-09T01:29:40;13.10;99.90
52965;DHT22;42923;53.220;6.528;2022-09-09T01:32:37;13.00;99.90
52965;DHT22;42923;53.220;6.528;2022-09-09T01:35:04;13.00;99.90
52965;DHT22;42923;53.220;6.528;2022-09-09T01:37:31;13.00;99.90
52965;DHT22;42923;53.220;6.528;2022-09-09T01:39:58;12.90;99.90
52965;DHT22;42923;53.220;6.528;2022-09-09T01:42:24;12.90;99.90
52965;DHT22;42923;53.220;6.528;2022-09-09T01:44:50;12.90;99.90
52965;DHT22;42923;53.220;6.528;2022-09-09T01:47:16;12.90;99.90
52965;DHT22;42923;53.220;6.528;2022-09-09T01:49:59;12.90;99.90
52965;DHT22;42923;53.220;6.528;2022-09-09T01:52:29;12.80;99.90
52965;DHT22;42923;53.220;6.528;2022-09-09T01:54:56;12.90;99.90
52965;DHT22;42923;53.220;6.528;2022-09-09T01:57:28;12.80;99.90
52965;DHT22;42923;53.220;6.528;2022-09-09T02:00:11;12.90;99.90
52965;DHT22;42923;53.220;6.528;2022-09-09T02:03:02;12.90;99.90
52965;DHT22;42923;53.220;6.528;2022-09-09T02:05:41;12.90;99.90
52965;DHT22;42923;53.220;6.528;2022-09-09T02:08:24;12.90;99.90
52965;DHT22;42923;53.220;6.528;2022-09-09T02:11:13;13.00;99.90
52965;DHT22;42923;53.220;6.528;2022-09-09T02:13:45;13.00;99.90
52965;DHT22;42923;53.220;6.528;2022-09-09T02:18:53;13.00;99.90
52965;DHT22;42923;53.220;6.528;2022-09-09T02:21:29;13.10;99.90
52965;DHT22;42923;53.220;6.528;2022-09-09T02:23:59;13.10;99.90
52965;DHT22;42923;53.220;6.528;2022-09-09T02:26:27;13.20;99.90
52965;DHT22;42923;53.220;6.528;2022-09-09T02:29:01;13.20;99.90
52965;DHT22;42923;53.220;6.528;2022-09-09T02:31:28;13.50;99.90
52965;DHT22;42923;53.220;6.528;2022-09-09T02:34:01;13.30;99.90
52965;DHT22;42923;53.220;6.528;2022-09-09T02:36:31;13.30;99.90
52965;DHT22;42923;53.220;6.528;2022-09-09T02:38:59;13.40;99.90
52965;DHT22;42923;53.220;6.528;2022-09-09T02:41:33;13.30;99.90
52965;DHT22;42923;53.220;6.528;2022-09-09T02:44:00;13.40;99.90
52965;DHT22;42923;53.220;6.528;2022-09-09T02:46:49;13.40;99.90
52965;DHT22;42923;53.220;6.528;2022-09-09T02:49:21;13.40;99.90
52965;DHT22;42923;53.220;6.528;2022-09-09T02:51:52;13.40;99.90
52965;DHT22;42923;53.220;6.528;2022-09-09T02:54:27;13.50;99.90
52965;DHT22;42923;53.220;6.528;2022-09-09T02:57:06;13.40;99.90
52965;DHT22;42923;53.220;6.528;2022-09-09T02:59:38;13.40;99.90
52965;DHT22;42923;53.220;6.528;2022-09-09T03:02:04;13.40;99.90
52965;DHT22;42923;53.220;6.528;2022-09-09T03:04:30;13.50;99.90
52965;DHT22;42923;53.220;6.528;2022-09-09T03:06:58;13.50;99.90
52965;DHT22;42923;53.220;6.528;2022-09-09T03:09:24;13.50;99.90
52965;DHT22;42923;53.220;6.528;2022-09-09T03:11:50;13.50;99.90
52965;DHT22;42923;53.220;6.528;2022-09-09T03:14:17;13.50;99.90
52965;DHT22;42923;53.220;6.528;2022-09-09T03:16:47;13.50;99.90
52965;DHT22;42923;53.220;6.528;2022-09-09T03:19:13;13.50;99.90
52965;DHT22;42923;53.220;6.528;2022-09-09T03:21:40;13.50;99.90
52965;DHT22;42923;53.220;6.528;2022-09-09T03:24:06;13.50;99.90
52965;DHT22;42923;53.220;6.528;2022-09-09T03:26:33;13.50;99.90
52965;DHT22;42923;53.220;6.528;2022-09-09T03:28:59;13.60;99.90
52965;DHT22;42923;53.220;6.528;2022-09-09T03:31:26;13.60;99.90
52965;DHT22;42923;53.220;6.528;2022-09-09T03:33:57;13.60;99.90
52965;DHT22;42923;53.220;6.528;2022-09-09T03:36:25;13.60;99.90
52965;DHT22;42923;53.220;6.528;2022-09-09T03:38:52;13.70;99.90
52965;DHT22;42923;53.220;6.528;2022-09-09T03:41:23;13.70;99.90
52965;DHT22;42923;53.220;6.528;2022-09-09T03:43:53;13.70;99.90
52965;DHT22;42923;53.220;6.528;2022-09-09T03:46:22;13.90;99.90
52965;DHT22;42923;53.220;6.528;2022-09-09T03:48:50;13.70;99.90
52965;DHT22;42923;53.220;6.528;2022-09-09T03:51:18;13.70;99.90
52965;DHT22;42923;53.220;6.528;2022-09-09T03:53:45;13.80;99.90
52965;DHT22;42923;53.220;6.528;2022-09-09T03:56:11;13.90;99.90
52965;DHT22;42923;53.220;6.528;2022-09-09T03:58:37;13.80;99.90
52965;DHT22;42923;53.220;6.528;2022-09-09T04:01:12;13.80;99.90
52965;DHT22;42923;53.220;6.528;2022-09-09T04:03:43;14.00;99.90
52965;DHT22;42923;53.220;6.528;2022-09-09T04:06:10;13.80;99.90
52965;DHT22;42923;53.220;6.528;2022-09-09T04:08:37;13.80;99.90
52965;DHT22;42923;53.220;6.528;2022-09-09T04:11:04;14.40;99.90
52965;DHT22;42923;53.220;6.528;2022-09-09T04:13:37;13.90;99.90
52965;DHT22;42923;53.220;6.528;2022-09-09T04:16:10;13.90;99.90
52965;DHT22;42923;53.220;6.528;2022-09-09T04:18:37;13.80;99.90
52965;DHT22;42923;53.220;6.528;2022-09-09T04:21:03;13.90;99.90
52965;DHT22;42923;53.220;6.528;2022-09-09T04:23:31;13.90;99.90
52965;DHT22;42923;53.220;6.528;2022-09-09T04:25:59;14.00;99.90
52965;DHT22;42923;53.220;6.528;2022-09-09T04:28:28;14.00;99.90
52965;DHT22;42923;53.220;6.528;2022-09-09T04:30:54;14.00;99.90
52965;DHT22;42923;53.220;6.528;2022-09-09T04:33:21;14.00;99.90
52965;DHT22;42923;53.220;6.528;2022-09-09T04:35:50;14.10;99.90
52965;DHT22;42923;53.220;6.528;2022-09-09T04:38:18;14.10;99.90
52965;DHT22;42923;53.220;6.528;2022-09-09T04:40:46;14.10;99.90
52965;DHT22;42923;53.220;6.528;2022-09-09T04:43:13;14.10;99.90
52965;DHT22;42923;53.220;6.528;2022-09-09T04:45:46;14.10;99.90
52965;DHT22;42923;53.220;6.528;2022-09-09T04:48:12;14.10;99.90
52965;DHT22;42923;53.220;6.528;2022-09-09T04:50:38;14.10;99.90
52965;DHT22;42923;53.220;6.528;2022-09-09T04:53:04;14.20;99.90
52965;DHT22;42923;53.220;6.528;2022-09-09T04:55:31;14.10;99.90
52965;DHT22;42923;53.220;6.528;2022-09-09T04:57:57;14.20;99.90
52965;DHT22;42923;53.220;6.528;2022-09-09T05:00:24;14.20;99.90
52965;DHT22;42923;53.220;6.528;2022-09-09T05:02:50;14.30;99.90
52965;DHT22;42923;53.220;6.528;2022-09-09T05:05:17;14.30;99.90
52965;DHT22;42923;53.220;6.528;2022-09-09T05:07:46;14.20;99.90
52965;DHT22;42923;53.220;6.528;2022-09-09T05:10:13;14.20;99.90
52965;DHT22;42923;53.220;6.528;2022-09-09T05:12:41;14.20;99.90
52965;DHT22;42923;53.220;6.528;2022-09-09T05:15:07;14.20;99.90
52965;DHT22;42923;53.220;6.528;2022-09-09T05:17:33;14.20;99.90
52965;DHT22;42923;53.220;6.528;2022-09-09T05:19:59;14.20;99.90
52965;DHT22;42923;53.220;6.528;2022-09-09T05:22:25;14.20;99.90
52965;DHT22;42923;53.220;6.528;2022-09-09T05:24:52;14.20;99.90
52965;DHT22;42923;53.220;6.528;2022-09-09T05:27:18;14.20;99.90
52965;DHT22;42923;53.220;6.528;2022-09-09T05:29:48;14.20;99.90
52965;DHT22;42923;53.220;6.528;2022-09-09T05:32:14;14.20;99.90
52965;DHT22;42923;53.220;6.528;2022-09-09T05:34:43;14.20;99.90
52965;DHT22;42923;53.220;6.528;2022-09-09T05:37:09;14.20;99.90
52965;DHT22;42923;53.220;6.528;2022-09-09T05:39:36;14.20;99.90
52965;DHT22;42923;53.220;6.528;2022-09-09T05:42:03;14.30;99.90
52965;DHT22;42923;53.220;6.528;2022-09-09T05:44:31;14.20;99.90
52965;DHT22;42923;53.220;6.528;2022-09-09T05:46:57;14.20;99.90
52965;DHT22;42923;53.220;6.528;2022-09-09T05:49:23;14.10;99.90
52965;DHT22;42923;53.220;6.528;2022-09-09T05:51:50;14.20;99.90
52965;DHT22;42923;53.220;6.528;2022-09-09T05:54:17;14.30;99.90
52965;DHT22;42923;53.220;6.528;2022-09-09T05:56:47;14.20;99.90
52965;DHT22;42923;53.220;6.528;2022-09-09T05:59:15;14.30;99.90
52965;DHT22;42923;53.220;6.528;2022-09-09T06:01:41;14.30;99.90
52965;DHT22;42923;53.220;6.528;2022-09-09T06:04:12;14.30;99.90
52965;DHT22;42923;53.220;6.528;2022-09-09T06:06:39;14.30;99.90
52965;DHT22;42923;53.220;6.528;2022-09-09T06:09:12;14.50;99.90
52965;DHT22;42923;53.220;6.528;2022-09-09T06:11:41;14.40;99.90
52965;DHT22;42923;53.220;6.528;2022-09-09T06:14:08;14.40;99.90
52965;DHT22;42923;53.220;6.528;2022-09-09T06:16:35;14.40;99.90
52965;DHT22;42923;53.220;6.528;2022-09-09T06:19:04;14.50;99.90
52965;DHT22;42923;53.220;6.528;2022-09-09T06:21:33;14.50;99.90
52965;DHT22;42923;53.220;6.528;2022-09-09T06:24:01;14.60;99.90
52965;DHT22;42923;53.220;6.528;2022-09-09T06:26:33;14.60;99.90
52965;DHT22;42923;53.220;6.528;2022-09-09T06:29:01;14.60;99.90
52965;DHT22;42923;53.220;6.528;2022-09-09T06:31:30;14.60;99.90
52965;DHT22;42923;53.220;6.528;2022-09-09T06:34:00;14.70;99.90
52965;DHT22;42923;53.220;6.528;2022-09-09T06:36:31;14.70;99.90
52965;DHT22;42923;53.220;6.528;2022-09-09T06:38:57;14.70;99.90
52965;DHT22;42923;53.220;6.528;2022-09-09T06:41:28;14.70;99.90
52965;DHT22;42923;53.220;6.528;2022-09-09T06:43:56;14.80;99.90
52965;DHT22;42923;53.220;6.528;2022-09-09T06:46:30;14.80;99.90
52965;DHT22;42923;53.220;6.528;2022-09-09T06:48:59;14.80;99.90
52965;DHT22;42923;53.220;6.528;2022-09-09T06:51:30;14.90;99.90
52965;DHT22;42923;53.220;6.528;2022-09-09T06:53:59;14.90;99.90
52965;DHT22;42923;53.220;6.528;2022-09-09T06:56:33;14.90;99.90
52965;DHT22;42923;53.220;6.528;2022-09-09T06:59:06;15.00;99.90
52965;DHT22;42923;53.220;6.528;2022-09-09T07:01:36;15.00;99.90
52965;DHT22;42923;53.220;6.528;2022-09-09T07:04:05;15.00;99.90
52965;DHT22;42923;53.220;6.528;2022-09-09T07:06:37;15.10;99.90
52965;DHT22;42923;53.220;6.528;2022-09-09T07:09:09;15.20;99.90
52965;DHT22;42923;53.220;6.528;2022-09-09T07:11:43;15.20;99.90
52965;DHT22;42923;53.220;6.528;2022-09-09T07:14:10;15.30;99.90
52965;DHT22;42923;53.220;6.528;2022-09-09T07:16:43;15.30;99.90
52965;DHT22;42923;53.220;6.528;2022-09-09T07:19:10;15.30;99.90
52965;DHT22;42923;53.220;6.528;2022-09-09T07:21:37;15.40;99.90
52965;DHT22;42923;53.220;6.528;2022-09-09T07:24:03;15.40;99.90
52965;DHT22;42923;53.220;6.528;2022-09-09T07:26:33;15.50;99.90
52965;DHT22;42923;53.220;6.528;2022-09-09T07:29:00;15.50;99.90
52965;DHT22;42923;53.220;6.528;2022-09-09T07:31:33;15.50;99.90
52965;DHT22;42923;53.220;6.528;2022-09-09T07:34:01;15.60;99.90
52965;DHT22;42923;53.220;6.528;2022-09-09T07:36:35;15.60;99.90
52965;DHT22;42923;53.220;6.528;2022-09-09T07:39:06;15.70;99.90
52965;DHT22;42923;53.220;6.528;2022-09-09T07:41:36;15.70;99.90
52965;DHT22;42923;53.220;6.528;2022-09-09T07:44:08;15.80;99.90
52965;DHT22;42923;53.220;6.528;2022-09-09T07:46:35;15.80;99.90
52965;DHT22;42923;53.220;6.528;2022-09-09T07:49:01;15.90;99.90
52965;DHT22;42923;53.220;6.528;2022-09-09T07:51:37;16.00;99.90
52965;DHT22;42923;53.220;6.528;2022-09-09T07:54:06;15.90;99.90
52965;DHT22;42923;53.220;6.528;2022-09-09T07:56:33;16.00;99.90
52965;DHT22;42923;53.220;6.528;2022-09-09T07:59:00;16.00;99.90
52965;DHT22;42923;53.220;6.528;2022-09-09T08:01:32;16.00;99.90
52965;DHT22;42923;53.220;6.528;2022-09-09T08:04:02;16.20;99.90
52965;DHT22;42923;53.220;6.528;2022-09-09T08:06:32;16.20;99.90
52965;DHT22;42923;53.220;6.528;2022-09-09T08:08:59;16.30;99.90
52965;DHT22;42923;53.220;6.528;2022-09-09T08:11:26;16.40;99.90
52965;DHT22;42923;53.220;6.528;2022-09-09T08:13:52;16.60;99.90
52965;DHT22;42923;53.220;6.528;2022-09-09T08:16:29;16.50;99.90
52965;DHT22;42923;53.220;6.528;2022-09-09T08:18:56;16.50;99.90
52965;DHT22;42923;53.220;6.528;2022-09-09T08:21:24;16.70;99.90
52965;DHT22;42923;53.220;6.528;2022-09-09T08:23:53;16.70;99.90
52965;DHT22;42923;53.220;6.528;2022-09-09T08:26:22;16.80;99.90
52965;DHT22;42923;53.220;6.528;2022-09-09T08:28:50;16.90;99.90
52965;DHT22;42923;53.220;6.528;2022-09-09T08:31:24;17.00;99.90
52965;DHT22;42923;53.220;6.528;2022-09-09T08:33:52;17.10;99.90
52965;DHT22;42923;53.220;6.528;2022-09-09T08:36:21;17.20;99.90
52965;DHT22;42923;53.220;6.528;2022-09-09T08:38:49;17.30;99.90
52965;DHT22;42923;53.220;6.528;2022-09-09T08:50:30;17.60;99.90
52965;DHT22;42923;53.220;6.528;2022-09-09T08:56:26;17.70;99.90
52965;DHT22;42923;53.220;6.528;2022-09-09T08:58:33;17.80;99.90
52965;DHT22;42923;53.220;6.528;2022-09-09T09:01:17;17.70;99.90
52965;DHT22;42923;53.220;6.528;2022-09-09T09:12:18;17.80;99.90
52965;DHT22;42923;53.220;6.528;2022-09-09T09:14:47;17.90;99.90
52965;DHT22;42923;53.220;6.528;2022-09-09T09:17:17;18.00;99.90
52965;DHT22;42923;53.220;6.528;2022-09-09T09:19:46;18.00;99.90
52965;DHT22;42923;53.220;6.528;2022-09-09T09:25:21;18.10;99.90
52965;DHT22;42923;53.220;6.528;2022-09-09T09:28:02;18.20;99.90
52965;DHT22;42923;53.220;6.528;2022-09-09T09:30:40;18.30;99.90
52965;DHT22;42923;53.220;6.528;2022-09-09T09:33:16;18.40;99.90
52965;DHT22;42923;53.220;6.528;2022-09-09T09:35:43;18.50;99.90
52965;DHT22;42923;53.220;6.528;2022-09-09T09:38:23;18.60;99.90
52965;DHT22;42923;53.220;6.528;2022-09-09T09:40:58;18.80;99.90
52965;DHT22;42923;53.220;6.528;2022-09-09T09:43:28;18.90;99.90
52965;DHT22;42923;53.220;6.528;2022-09-09T09:45:56;19.00;99.90
52965;DHT22;42923;53.220;6.528;2022-09-09T09:48:24;19.10;99.90
52965;DHT22;42923;53.220;6.528;2022-09-09T09:51:03;19.30;99.90
52965;DHT22;42923;53.220;6.528;2022-09-09T09:53:34;19.50;99.90
52965;DHT22;42923;53.220;6.528;2022-09-09T09:56:07;19.50;99.90
52965;DHT22;42923;53.220;6.528;2022-09-09T09:58:49;19.60;99.90
52965;DHT22;42923;53.220;6.528;2022-09-09T10:01:25;19.60;99.90
52965;DHT22;42923;53.220;6.528;2022-09-09T10:03:53;19.70;99.90
52965;DHT22;42923;53.220;6.528;2022-09-09T10:06:34;19.60;99.90
52965;DHT22;42923;53.220;6.528;2022-09-09T10:09:01;19.50;99.90
52965;DHT22;42923;53.220;6.528;2022-09-09T10:14:36;19.50;99.90
52965;DHT22;42923;53.220;6.528;2022-09-09T10:22:35;19.20;99.90
52965;DHT22;42923;53.220;6.528;2022-09-09T10:25:31;19.10;99.90
52965;DHT22;42923;53.220;6.528;2022-09-09T10:28:33;19.10;99.90
52965;DHT22;42923;53.220;6.528;2022-09-09T10:31:23;19.00;99.90
52965;DHT22;42923;53.220;6.528;2022-09-09T10:36:24;19.10;99.90
52965;DHT22;42923;53.220;6.528;2022-09-09T10:39:04;19.30;99.90
52965;DHT22;42923;53.220;6.528;2022-09-09T10:44:59;19.90;99.90
52965;DHT22;42923;53.220;6.528;2022-09-09T10:56:06;20.70;99.90
52965;DHT22;42923;53.220;6.528;2022-09-09T11:01:31;20.90;99.90
52965;DHT22;42923;53.220;6.528;2022-09-09T11:04:05;21.00;99.90
52965;DHT22;42923;53.220;6.528;2022-09-09T11:06:39;20.80;99.90
52965;DHT22;42923;53.220;6.528;2022-09-09T11:09:14;20.60;99.90
52965;DHT22;42923;53.220;6.528;2022-09-09T11:11:53;20.60;99.90
52965;DHT22;42923;53.220;6.528;2022-09-09T11:21:53;21.50;99.90
52965;DHT22;42923;53.220;6.528;2022-09-09T11:24:40;21.90;99.90
52965;DHT22;42923;53.220;6.528;2022-09-09T11:27:13;22.50;99.90
52965;DHT22;42923;53.220;6.528;2022-09-09T11:38:27;23.70;99.90
52965;DHT22;42923;53.220;6.528;2022-09-09T11:40:58;23.90;99.90
52965;DHT22;42923;53.220;6.528;2022-09-09T11:43:49;24.40;99.90
52965;DHT22;42923;53.220;6.528;2022-09-09T11:46:18;24.30;99.90
52965;DHT22;42923;53.220;6.528;2022-09-09T11:48:58;24.10;99.90
52965;DHT22;42923;53.220;6.528;2022-09-09T11:51:25;24.20;99.90
52965;DHT22;42923;53.220;6.528;2022-09-09T11:54:00;24.30;99.90
52965;DHT22;42923;53.220;6.528;2022-09-09T11:56:43;24.30;99.90
52965;DHT22;42923;53.220;6.528;2022-09-09T11:59:24;23.80;99.90
52965;DHT22;42923;53.220;6.528;2022-09-09T12:01:56;23.30;99.90
52965;DHT22;42923;53.220;6.528;2022-09-09T12:06:52;22.90;99.90
52965;DHT22;42923;53.220;6.528;2022-09-09T12:12:04;22.70;99.90
52965;DHT22;42923;53.220;6.528;2022-09-09T12:14:43;22.20;99.90
52965;DHT22;42923;53.220;6.528;2022-09-09T12:17:23;21.80;99.90
52965;DHT22;42923;53.220;6.528;2022-09-09T12:20:14;21.70;99.90
52965;DHT22;42923;53.220;6.528;2022-09-09T12:25:57;21.50;99.90
52965;DHT22;42923;53.220;6.528;2022-09-09T12:34:10;21.40;99.90
52965;DHT22;42923;53.220;6.528;2022-09-09T12:36:37;21.40;99.90
52965;DHT22;42923;53.220;6.528;2022-09-09T12:39:24;21.30;99.90
52965;DHT22;42923;53.220;6.528;2022-09-09T12:41:53;21.20;99.90
52965;DHT22;42923;53.220;6.528;2022-09-09T12:44:26;21.10;99.90
52965;DHT22;42923;53.220;6.528;2022-09-09T12:46:57;21.10;99.90
52965;DHT22;42923;53.220;6.528;2022-09-09T12:49:38;21.10;99.90
52965;DHT22;42923;53.220;6.528;2022-09-09T12:52:08;21.20;99.90
52965;DHT22;42923;53.220;6.528;2022-09-09T12:54:44;21.20;99.90
52965;DHT22;42923;53.220;6.528;2022-09-09T12:57:13;21.30;99.90
52965;DHT22;42923;53.220;6.528;2022-09-09T12:59:43;21.50;99.90
52965;DHT22;42923;53.220;6.528;2022-09-09T13:02:25;22.10;99.90
52965;DHT22;42923;53.220;6.528;2022-09-09T13:04:51;22.80;99.90
52965;DHT22;42923;53.220;6.528;2022-09-09T13:07:18;23.40;99.90
52965;DHT22;42923;53.220;6.528;2022-09-09T13:09:46;24.00;99.90
52965;DHT22;42923;53.220;6.528;2022-09-09T13:12:18;24.50;99.90
52965;DHT22;42923;53.220;6.528;2022-09-09T13:14:48;24.30;99.90
52965;DHT22;42923;53.220;6.528;2022-09-09T13:17:23;23.90;99.90
52965;DHT22;42923;53.220;6.528;2022-09-09T13:19:51;23.40;99.90
52965;DHT22;42923;53.220;6.528;2022-09-09T13:22:36;23.00;99.90
52965;DHT22;42923;53.220;6.528;2022-09-09T13:25:05;22.80;99.90
52965;DHT22;42923;53.220;6.528;2022-09-09T13:27:34;22.60;99.90
52965;DHT22;42923;53.220;6.528;2022-09-09T13:36:02;21.90;99.90
52965;DHT22;42923;53.220;6.528;2022-09-09T13:38:38;21.60;99.90
52965;DHT22;42923;53.220;6.528;2022-09-09T13:41:09;21.50;99.90
52965;DHT22;42923;53.220;6.528;2022-09-09T13:43:38;21.60;99.90
52965;DHT22;42923;53.220;6.528;2022-09-09T13:46:38;21.60;99.90
52965;DHT22;42923;53.220;6.528;2022-09-09T13:51:43;21.10;99.90
52965;DHT22;42923;53.220;6.528;2022-09-09T13:54:14;20.90;99.90
52965;DHT22;42923;53.220;6.528;2022-09-09T13:56:41;20.70;99.90
52965;DHT22;42923;53.220;6.528;2022-09-09T13:59:16;20.60;99.90
52965;DHT22;42923;53.220;6.528;2022-09-09T14:01:42;20.70;99.90
52965;DHT22;42923;53.220;6.528;2022-09-09T14:04:09;21.00;99.90
52965;DHT22;42923;53.220;6.528;2022-09-09T14:06:36;21.20;99.90
52965;DHT22;42923;53.220;6.528;2022-09-09T14:09:06;21.50;99.90
52965;DHT22;42923;53.220;6.528;2022-09-09T14:11:32;21.60;99.90
52965;DHT22;42923;53.220;6.528;2022-09-09T14:13:58;21.60;99.90
52965;DHT22;42923;53.220;6.528;2022-09-09T14:16:24;21.90;99.90
52965;DHT22;42923;53.220;6.528;2022-09-09T14:18:52;22.60;99.90
52965;DHT22;42923;53.220;6.528;2022-09-09T14:21:18;23.10;99.90
52965;DHT22;42923;53.220;6.528;2022-09-09T14:23:44;23.20;99.90
52965;DHT22;42923;53.220;6.528;2022-09-09T14:26:10;22.80;99.90
52965;DHT22;42923;53.220;6.528;2022-09-09T14:28:36;22.30;99.90
52965;DHT22;42923;53.220;6.528;2022-09-09T14:31:03;21.90;99.90
52965;DHT22;42923;53.220;6.528;2022-09-09T14:33:30;21.60;99.90
52965;DHT22;42923;53.220;6.528;2022-09-09T14:36:00;21.20;99.90
52965;DHT22;42923;53.220;6.528;2022-09-09T14:38:29;21.00;99.90
52965;DHT22;42923;53.220;6.528;2022-09-09T14:40:55;20.60;99.90
52965;DHT22;42923;53.220;6.528;2022-09-09T14:43:21;20.50;99.90
52965;DHT22;42923;53.220;6.528;2022-09-09T14:45:47;20.30;99.90
52965;DHT22;42923;53.220;6.528;2022-09-09T14:48:14;20.20;99.90
52965;DHT22;42923;53.220;6.528;2022-09-09T14:50:41;20.20;99.90
52965;DHT22;42923;53.220;6.528;2022-09-09T14:53:07;20.10;99.90
52965;DHT22;42923;53.220;6.528;2022-09-09T14:55:34;20.00;99.90
52965;DHT22;42923;53.220;6.528;2022-09-09T14:58:00;19.90;99.90
52965;DHT22;42923;53.220;6.528;2022-09-09T15:00:26;19.90;99.90
52965;DHT22;42923;53.220;6.528;2022-09-09T15:02:53;19.80;99.90
52965;DHT22;42923;53.220;6.528;2022-09-09T15:05:18;19.70;99.90
52965;DHT22;42923;53.220;6.528;2022-09-09T15:07:44;19.70;99.90
52965;DHT22;42923;53.220;6.528;2022-09-09T15:10:11;19.70;99.90
52965;DHT22;42923;53.220;6.528;2022-09-09T15:12:37;19.80;99.90
52965;DHT22;42923;53.220;6.528;2022-09-09T15:15:05;19.80;99.90
52965;DHT22;42923;53.220;6.528;2022-09-09T15:17:31;19.90;99.90
52965;DHT22;42923;53.220;6.528;2022-09-09T15:19:57;20.00;99.90
52965;DHT22;42923;53.220;6.528;2022-09-09T15:22:23;20.10;99.90
52965;DHT22;42923;53.220;6.528;2022-09-09T15:24:50;20.20;99.90
52965;DHT22;42923;53.220;6.528;2022-09-09T15:27:15;20.30;99.90
52965;DHT22;42923;53.220;6.528;2022-09-09T15:29:42;20.40;99.90
52965;DHT22;42923;53.220;6.528;2022-09-09T15:32:08;20.50;99.90
52965;DHT22;42923;53.220;6.528;2022-09-09T15:34:33;20.50;99.90
52965;DHT22;42923;53.220;6.528;2022-09-09T15:36:59;20.60;99.90
52965;DHT22;42923;53.220;6.528;2022-09-09T15:39:25;20.50;99.90
52965;DHT22;42923;53.220;6.528;2022-09-09T15:41:51;20.40;99.90
52965;DHT22;42923;53.220;6.528;2022-09-09T15:44:17;20.20;99.90
52965;DHT22;42923;53.220;6.528;2022-09-09T15:46:46;20.10;99.90
52965;DHT22;42923;53.220;6.528;2022-09-09T15:51:45;19.90;99.90
52965;DHT22;42923;53.220;6.528;2022-09-09T15:54:16;19.80;99.90
52965;DHT22;42923;53.220;6.528;2022-09-09T15:56:44;19.80;99.90
52965;DHT22;42923;53.220;6.528;2022-09-09T15:59:10;19.90;99.90
52965;DHT22;42923;53.220;6.528;2022-09-09T16:01:37;20.00;99.90
52965;DHT22;42923;53.220;6.528;2022-09-09T16:04:05;19.90;99.90
52965;DHT22;42923;53.220;6.528;2022-09-09T16:06:32;19.70;99.90
52965;DHT22;42923;53.220;6.528;2022-09-09T16:08:59;19.60;99.90
52965;DHT22;42923;53.220;6.528;2022-09-09T16:11:29;19.40;99.90
52965;DHT22;42923;53.220;6.528;2022-09-09T16:13:55;19.20;99.90
52965;DHT22;42923;53.220;6.528;2022-09-09T16:16:23;19.10;99.90
52965;DHT22;42923;53.220;6.528;2022-09-09T16:18:52;19.00;99.90
52965;DHT22;42923;53.220;6.528;2022-09-09T16:21:21;18.80;99.90
52965;DHT22;42923;53.220;6.528;2022-09-09T16:23:47;18.70;99.90
52965;DHT22;42923;53.220;6.528;2022-09-09T16:26:16;18.70;99.90
52965;DHT22;42923;53.220;6.528;2022-09-09T16:28:42;18.60;99.90
52965;DHT22;42923;53.220;6.528;2022-09-09T16:31:13;18.50;99.90
52965;DHT22;42923;53.220;6.528;2022-09-09T16:33:40;18.40;99.90
52965;DHT22;42923;53.220;6.528;2022-09-09T16:36:11;18.30;99.90
52965;DHT22;42923;53.220;6.528;2022-09-09T16:38:38;18.30;99.90
52965;DHT22;42923;53.220;6.528;2022-09-09T16:41:05;18.20;99.90
52965;DHT22;42923;53.220;6.528;2022-09-09T16:43:32;18.10;99.90
52965;DHT22;42923;53.220;6.528;2022-09-09T16:45:58;18.10;99.90
52965;DHT22;42923;53.220;6.528;2022-09-09T16:48:30;18.10;99.90
52965;DHT22;42923;53.220;6.528;2022-09-09T16:51:05;18.00;99.90
52965;DHT22;42923;53.220;6.528;2022-09-09T16:53:32;18.00;99.90
52965;DHT22;42923;53.220;6.528;2022-09-09T16:55:58;17.90;99.90
52965;DHT22;42923;53.220;6.528;2022-09-09T16:58:31;17.90;99.90
52965;DHT22;42923;53.220;6.528;2022-09-09T17:01:01;17.80;99.90
52965;DHT22;42923;53.220;6.528;2022-09-09T17:03:29;17.80;99.90
52965;DHT22;42923;53.220;6.528;2022-09-09T17:05:55;17.80;99.90
52965;DHT22;42923;53.220;6.528;2022-09-09T17:08:20;17.70;99.90
52965;DHT22;42923;53.220;6.528;2022-09-09T17:10:49;17.70;99.90
52965;DHT22;42923;53.220;6.528;2022-09-09T17:13:15;17.70;99.90
52965;DHT22;42923;53.220;6.528;2022-09-09T17:15:44;17.70;99.90
52965;DHT22;42923;53.220;6.528;2022-09-09T17:18:10;17.60;99.90
52965;DHT22;42923;53.220;6.528;2022-09-09T17:20:40;17.60;99.90
52965;DHT22;42923;53.220;6.528;2022-09-09T17:23:08;17.60;99.90
52965;DHT22;42923;53.220;6.528;2022-09-09T17:25:35;17.60;99.90
52965;DHT22;42923;53.220;6.528;2022-09-09T17:28:01;17.50;99.90
52965;DHT22;42923;53.220;6.528;2022-09-09T17:30:27;17.50;99.90
52965;DHT22;42923;53.220;6.528;2022-09-09T17:32:53;17.50;99.90
52965;DHT22;42923;53.220;6.528;2022-09-09T17:35:19;17.40;99.90
52965;DHT22;42923;53.220;6.528;2022-09-09T17:37:45;17.40;99.90
52965;DHT22;42923;53.220;6.528;2022-09-09T17:40:11;17.40;99.90
52965;DHT22;42923;53.220;6.528;2022-09-09T17:42:37;17.30;99.90
52965;DHT22;42923;53.220;6.528;2022-09-09T17:45:03;17.30;99.90
52965;DHT22;42923;53.220;6.528;2022-09-09T17:47:29;17.30;99.90